createdAt,value
2018-06-05T00:02:26.049Z,21.80
2018-06-05T00:04:54.373Z,26.93
2018-06-05T00:07:22.694Z,24.93
2018-06-05T00:09:51.960Z,27.77
2018-06-05T00:12:20.287Z,26.77
2018-06-05T00:14:48.781Z,24.50
2018-06-05T00:17:18.164Z,26.57
2018-06-05T00:19:47.384Z,26.00
2018-06-05T00:22:16.801Z,24.87
2018-06-05T00:24:45.989Z,26.87
2018-06-05T00:27:15.277Z,23.70
2018-06-05T00:29:44.649Z,27.50
2018-06-05T00:32:12.959Z,26.83
2018-06-05T00:34:41.368Z,24.57
2018-06-05T00:37:10.736Z,23.03
2018-06-05T00:39:40.072Z,23.47
2018-06-05T00:42:08.393Z,29.00
2018-06-05T00:44:37.747Z,28.30
2018-06-05T00:47:06.985Z,26.23
2018-06-05T00:49:36.244Z,26.93
2018-06-05T00:52:06.930Z,29.30
2018-06-05T00:54:36.189Z,26.13
2018-06-05T00:57:04.648Z,29.57
2018-06-05T00:59:33.088Z,28.60
2018-06-05T01:02:02.353Z,24.97
2018-06-05T01:04:31.725Z,32.33
2018-06-05T01:07:00.091Z,38.00
2018-06-05T01:09:29.286Z,34.40
2018-06-05T01:11:58.636Z,36.27
2018-06-05T01:14:27.976Z,30.47
2018-06-05T01:16:56.336Z,34.00
2018-06-05T01:19:25.584Z,34.20
2018-06-05T01:21:53.896Z,34.30
2018-06-05T01:24:22.204Z,31.43
2018-06-05T01:26:50.520Z,37.90
2018-06-05T01:29:18.890Z,35.30
2018-06-05T01:31:48.250Z,34.03
2018-06-05T01:34:16.608Z,35.20
2018-06-05T01:36:44.909Z,40.63
2018-06-05T01:39:14.288Z,38.90
2018-06-05T01:41:42.645Z,39.10
2018-06-05T01:44:10.988Z,36.90
2018-06-05T01:46:39.353Z,35.37
2018-06-05T01:49:07.684Z,37.30
2018-06-05T01:51:36.049Z,42.23
2018-06-05T01:54:04.433Z,42.47
2018-06-05T01:56:32.944Z,45.27
2018-06-05T01:59:01.273Z,41.00
2018-06-05T02:01:29.773Z,44.63
2018-06-05T02:03:58.112Z,39.00
2018-06-05T02:06:26.569Z,44.77
2018-06-05T02:08:55.000Z,46.97
2018-06-05T02:11:23.408Z,44.83
2018-06-05T02:13:51.821Z,52.43
2018-06-05T02:16:20.168Z,44.90
2018-06-05T02:18:48.548Z,47.17
2018-06-05T02:21:16.910Z,42.07
2018-06-05T02:23:45.233Z,45.53
2018-06-05T02:26:13.616Z,49.37
2018-06-05T02:28:41.949Z,52.50
2018-06-05T02:31:10.393Z,47.27
2018-06-05T02:33:38.736Z,51.00
2018-06-05T02:36:07.109Z,45.97
2018-06-05T02:38:35.452Z,44.67
2018-06-05T02:41:03.778Z,49.33
2018-06-05T02:43:32.114Z,52.57
2018-06-05T02:46:00.480Z,48.13
2018-06-05T02:48:28.898Z,44.80
2018-06-05T02:50:57.326Z,48.13
2018-06-05T02:53:25.669Z,59.10
2018-06-05T02:55:54.004Z,45.93
2018-06-05T02:58:22.336Z,48.53
2018-06-05T03:00:50.670Z,53.27
2018-06-05T03:03:19.054Z,47.40
2018-06-05T03:05:47.444Z,46.43
2018-06-05T03:08:15.930Z,47.37
2018-06-05T03:10:44.255Z,46.60
2018-06-05T03:13:12.621Z,52.30
2018-06-05T03:15:40.968Z,44.60
2018-06-05T03:18:09.299Z,46.80
2018-06-05T03:20:37.724Z,51.70
2018-06-05T03:23:06.189Z,43.00
2018-06-05T03:25:34.587Z,44.60
2018-06-05T03:28:02.925Z,46.27
2018-06-05T03:30:31.397Z,47.80
2018-06-05T03:32:59.733Z,45.40
2018-06-05T03:35:28.157Z,40.73
2018-06-05T03:37:56.492Z,47.63
2018-06-05T03:40:24.968Z,47.63
2018-06-05T03:42:53.305Z,50.63
2018-06-05T03:45:21.731Z,54.97
2018-06-05T03:47:50.069Z,52.90
2018-06-05T03:50:18.396Z,48.37
2018-06-05T03:52:46.725Z,50.10
2018-06-05T03:55:15.149Z,46.90
2018-06-05T03:57:43.476Z,47.10
2018-06-05T04:00:11.817Z,45.80
2018-06-05T04:02:40.285Z,41.00
2018-06-05T04:05:08.646Z,44.10
2018-06-05T04:07:37.080Z,42.97
2018-06-05T04:10:05.500Z,54.13
2018-06-05T04:12:33.872Z,50.13
2018-06-05T04:15:02.292Z,40.07
2018-06-05T04:17:30.751Z,42.17
2018-06-05T04:19:59.080Z,40.97
2018-06-05T04:22:27.426Z,40.40
2018-06-05T04:24:55.756Z,43.23
2018-06-05T04:27:24.169Z,41.50
2018-06-05T04:29:52.817Z,43.57
2018-06-05T04:32:21.189Z,42.30
2018-06-05T04:34:49.553Z,35.87
2018-06-05T04:37:17.917Z,38.83
2018-06-05T04:39:46.289Z,32.00
2018-06-05T04:42:14.681Z,35.07
2018-06-05T04:44:43.012Z,32.43
2018-06-05T04:47:11.339Z,33.03
2018-06-05T04:49:39.681Z,34.50
2018-06-05T04:52:08.011Z,31.20
2018-06-05T04:54:36.345Z,33.23
2018-06-05T04:57:04.677Z,26.23
2018-06-05T04:59:33.021Z,29.83
2018-06-05T05:02:01.408Z,29.57
2018-06-05T05:04:29.736Z,32.00
2018-06-05T05:06:58.070Z,33.40
2018-06-05T05:09:26.440Z,31.67
2018-06-05T05:11:54.765Z,27.27
2018-06-05T05:14:23.224Z,34.27
2018-06-05T05:16:51.566Z,26.43
2018-06-05T05:19:19.999Z,33.30
2018-06-05T05:21:48.464Z,33.80
2018-06-05T05:24:16.803Z,38.03
2018-06-05T05:26:45.179Z,24.33
2018-06-05T05:29:13.579Z,26.70
2018-06-05T05:31:41.910Z,22.83
2018-06-05T05:34:10.233Z,23.47
2018-06-05T05:36:38.570Z,23.83
2018-06-05T05:39:07.597Z,27.27
2018-06-05T05:41:35.997Z,28.63
2018-06-05T05:44:04.336Z,24.83
2018-06-05T05:46:32.665Z,25.37
2018-06-05T05:49:01.010Z,25.50
2018-06-05T05:51:29.332Z,27.50
2018-06-05T05:53:57.652Z,26.47
2018-06-05T05:56:26.029Z,22.33
2018-06-05T05:58:54.392Z,28.73
2018-06-05T06:01:22.732Z,28.40
2018-06-05T06:03:51.238Z,23.63
2018-06-05T06:06:19.567Z,27.73
2018-06-05T06:08:47.896Z,26.63
2018-06-05T06:11:16.657Z,23.37
2018-06-05T06:13:44.982Z,21.17
2018-06-05T06:16:13.324Z,24.60
2018-06-05T06:18:41.707Z,21.33
2018-06-05T06:21:10.050Z,30.27
2018-06-05T06:23:38.375Z,23.80
2018-06-05T06:26:06.743Z,25.30
2018-06-05T06:28:35.249Z,21.60
2018-06-05T06:31:03.581Z,21.53
2018-06-05T06:33:32.946Z,25.93
2018-06-05T06:36:01.357Z,29.13
2018-06-05T06:38:29.788Z,24.57
2018-06-05T06:40:58.097Z,21.47
2018-06-05T06:43:26.445Z,26.73
2018-06-05T06:45:54.852Z,18.23
2018-06-05T06:48:23.205Z,23.03
2018-06-05T06:50:51.580Z,24.23
2018-06-05T06:53:19.917Z,16.47
2018-06-05T06:55:48.249Z,22.13
2018-06-05T06:58:16.620Z,20.53
2018-06-05T07:00:44.947Z,27.07
2018-06-05T07:03:13.274Z,29.30
2018-06-05T07:05:41.587Z,20.63
2018-06-05T07:08:09.913Z,17.60
2018-06-05T07:10:38.240Z,19.17
2018-06-05T07:13:06.571Z,21.47
2018-06-05T07:15:34.941Z,25.27
2018-06-05T07:18:03.264Z,21.60
2018-06-05T07:20:31.634Z,16.03
2018-06-05T07:22:59.950Z,20.73
2018-06-05T07:25:28.333Z,20.40
2018-06-05T07:27:56.661Z,18.40
2018-06-05T07:30:25.010Z,20.87
2018-06-05T07:32:53.347Z,19.87
2018-06-05T07:35:21.677Z,21.90
2018-06-05T07:37:50.004Z,17.10
2018-06-05T07:40:18.390Z,19.10
2018-06-05T07:42:46.757Z,18.43
2018-06-05T07:45:15.226Z,18.63
2018-06-05T07:47:43.606Z,18.60
2018-06-05T07:50:12.024Z,23.80
2018-06-05T07:52:40.388Z,20.37
2018-06-05T07:55:08.740Z,22.10
2018-06-05T07:57:37.232Z,18.43
2018-06-05T08:00:05.637Z,21.23
2018-06-05T08:02:34.041Z,27.37
2018-06-05T08:05:02.489Z,27.63
2018-06-05T08:07:30.853Z,26.53
2018-06-05T08:09:59.187Z,20.73
2018-06-05T08:12:27.562Z,19.17
2018-06-05T08:14:55.880Z,21.67
2018-06-05T08:17:24.288Z,18.37
2018-06-05T08:19:52.625Z,17.00
2018-06-05T08:22:20.953Z,25.37
2018-06-05T08:24:49.337Z,26.77
2018-06-05T08:27:17.708Z,22.23
2018-06-05T08:29:46.086Z,20.03
2018-06-05T08:32:16.088Z,20.53
2018-06-05T08:34:44.460Z,23.17
2018-06-05T08:37:12.785Z,21.90
2018-06-05T08:39:41.153Z,19.93
2018-06-05T08:42:09.473Z,22.23
2018-06-05T08:44:38.696Z,19.40
2018-06-05T08:47:07.061Z,19.73
2018-06-05T08:49:36.269Z,22.07
2018-06-05T08:52:04.649Z,21.77
2018-06-05T08:54:32.962Z,21.63
2018-06-05T08:57:01.282Z,19.43
2018-06-05T08:59:29.592Z,25.43
2018-06-05T09:01:58.024Z,17.63
2018-06-05T09:04:26.423Z,25.00
2018-06-05T09:06:54.744Z,20.23
2018-06-05T09:09:23.068Z,18.43
2018-06-05T09:11:51.427Z,24.33
2018-06-05T09:14:19.754Z,27.17
2018-06-05T09:16:48.078Z,22.20
2018-06-05T09:19:16.397Z,18.07
2018-06-05T09:21:44.840Z,22.10
2018-06-05T09:24:13.349Z,25.83
2018-06-05T09:26:41.690Z,76.00
2018-06-05T09:29:10.023Z,23.03
2018-06-05T09:31:38.353Z,21.00
2018-06-05T09:34:06.681Z,22.83
2018-06-05T09:36:35.184Z,24.13
2018-06-05T09:39:03.586Z,35.77
2018-06-05T09:41:31.921Z,20.87
2018-06-05T09:44:00.249Z,27.13
2018-06-05T09:46:28.645Z,42.80
2018-06-05T09:48:57.004Z,29.70
2018-06-05T09:51:25.329Z,27.90
2018-06-05T09:53:53.658Z,33.20
2018-06-05T09:56:21.982Z,21.60
2018-06-05T09:58:50.317Z,21.03
2018-06-05T10:01:18.637Z,66.73
2018-06-05T10:03:47.031Z,21.83
2018-06-05T10:06:15.402Z,20.73
2018-06-05T10:08:43.786Z,20.23
2018-06-05T10:11:12.148Z,24.20
2018-06-05T10:13:40.546Z,20.30
2018-06-05T10:16:08.907Z,23.00
2018-06-05T10:18:37.242Z,24.17
2018-06-05T10:21:05.559Z,24.60
2018-06-05T10:23:33.887Z,24.30
2018-06-05T10:26:02.218Z,23.47
2018-06-05T10:28:30.567Z,23.03
2018-06-05T10:30:58.884Z,22.03
2018-06-05T10:33:27.213Z,22.93
2018-06-05T10:35:55.538Z,21.60
2018-06-05T10:38:23.857Z,35.07
2018-06-05T10:40:52.234Z,26.30
2018-06-05T10:43:20.597Z,22.77
2018-06-05T10:45:48.924Z,25.60
2018-06-05T10:48:17.384Z,29.17
2018-06-05T10:50:45.705Z,22.83
2018-06-05T10:53:14.148Z,24.07
2018-06-05T10:55:42.466Z,26.97
2018-06-05T10:58:10.828Z,25.70
2018-06-05T11:00:39.148Z,20.70
2018-06-05T11:03:07.509Z,20.80
2018-06-05T11:05:35.829Z,24.60
2018-06-05T11:08:04.162Z,28.37
2018-06-05T11:10:32.477Z,22.80
2018-06-05T11:13:00.800Z,25.70
2018-06-05T11:15:29.122Z,27.00
2018-06-05T11:17:57.492Z,25.10
2018-06-05T11:20:25.870Z,33.37
2018-06-05T11:22:54.229Z,25.03
2018-06-05T11:25:22.544Z,21.20
2018-06-05T11:27:50.881Z,26.10
2018-06-05T11:30:19.265Z,25.83
2018-06-05T11:32:47.661Z,23.37
2018-06-05T11:35:15.987Z,28.13
2018-06-05T11:37:44.360Z,22.17
2018-06-05T11:40:13.558Z,23.67
2018-06-05T11:42:41.925Z,29.50
2018-06-05T11:45:10.296Z,28.03
2018-06-05T11:47:38.631Z,26.97
2018-06-05T11:50:07.680Z,26.13
2018-06-05T11:52:35.995Z,35.43
2018-06-05T11:55:04.385Z,26.90
2018-06-05T11:57:32.741Z,28.33
2018-06-05T12:00:01.111Z,26.10
2018-06-05T12:02:29.437Z,24.67
2018-06-05T12:04:57.753Z,27.20
2018-06-05T12:07:26.076Z,28.07
2018-06-05T12:09:54.397Z,25.93
2018-06-05T12:12:22.725Z,28.00
2018-06-05T12:14:51.072Z,23.73
2018-06-05T12:17:19.429Z,20.43
2018-06-05T12:19:47.785Z,26.90
2018-06-05T12:22:16.150Z,31.43
2018-06-05T12:24:44.473Z,28.10
2018-06-05T12:27:12.849Z,27.57
2018-06-05T12:29:41.178Z,27.20
2018-06-05T12:32:09.498Z,26.37
2018-06-05T12:34:37.852Z,25.00
2018-06-05T12:37:06.168Z,25.33
2018-06-05T12:39:34.586Z,24.53
2018-06-05T12:42:02.985Z,21.03
2018-06-05T12:44:31.394Z,21.87
2018-06-05T12:46:59.808Z,23.57
2018-06-05T12:49:28.165Z,28.83
2018-06-05T12:51:56.565Z,24.50
2018-06-05T12:54:24.892Z,21.37
2018-06-05T12:56:53.251Z,26.43
2018-06-05T12:59:21.591Z,20.10
2018-06-05T13:01:49.937Z,22.47
2018-06-05T13:04:18.262Z,22.20
2018-06-05T13:06:46.590Z,22.23
2018-06-05T13:09:14.903Z,20.97
2018-06-05T13:11:43.264Z,22.60
2018-06-05T13:14:12.069Z,21.80
2018-06-05T13:16:40.419Z,20.73
2018-06-05T13:19:08.758Z,20.00
2018-06-05T13:21:37.093Z,20.47
2018-06-05T13:24:05.481Z,22.27
2018-06-05T13:26:33.811Z,16.23
2018-06-05T13:29:02.125Z,20.23
2018-06-05T13:31:30.455Z,18.73
2018-06-05T13:33:58.784Z,26.27
2018-06-05T13:36:27.097Z,18.83
2018-06-05T13:38:55.419Z,22.37
2018-06-05T13:41:23.755Z,20.30
2018-06-05T13:43:52.096Z,21.10
2018-06-05T13:46:20.429Z,20.70
2018-06-05T13:48:48.797Z,18.03
2018-06-05T13:51:17.118Z,17.70
2018-06-05T13:53:45.436Z,50.10
2018-06-05T13:56:13.757Z,19.90
2018-06-05T13:58:42.068Z,17.40
2018-06-05T14:01:11.172Z,18.07
2018-06-05T14:03:39.490Z,17.17
2018-06-05T14:06:07.867Z,22.47
2018-06-05T14:08:36.184Z,21.73
2018-06-05T14:11:04.549Z,18.10
2018-06-05T14:13:32.916Z,12.00
2018-06-05T14:16:01.315Z,19.27
2018-06-05T14:18:29.702Z,26.80
2018-06-05T14:20:58.178Z,17.07
2018-06-05T14:23:26.501Z,16.23
2018-06-05T14:25:54.869Z,15.53
2018-06-05T14:28:23.217Z,15.33
2018-06-05T14:30:51.548Z,22.20
2018-06-05T14:33:20.069Z,15.53
2018-06-05T14:35:48.406Z,12.07
2018-06-05T14:38:16.839Z,15.80
2018-06-05T14:40:45.212Z,13.03
2018-06-05T14:43:13.597Z,13.80
2018-06-05T14:45:41.974Z,11.20
2018-06-05T14:48:10.306Z,9.33
2018-06-05T14:50:38.739Z,16.27
2018-06-05T14:53:07.089Z,12.33
2018-06-05T14:55:35.409Z,12.43
2018-06-05T14:58:03.733Z,14.73
2018-06-05T15:00:32.058Z,13.33
2018-06-05T15:03:00.380Z,10.80
2018-06-05T15:05:28.871Z,16.40
2018-06-05T15:07:57.193Z,13.20
2018-06-05T15:10:25.522Z,12.00
2018-06-05T15:12:53.877Z,9.70
2018-06-05T15:15:22.205Z,13.67
2018-06-05T15:17:50.568Z,13.43
2018-06-05T15:20:18.905Z,11.03
2018-06-05T15:22:47.233Z,12.87
2018-06-05T15:25:15.557Z,10.83
2018-06-05T15:27:43.874Z,9.50
2018-06-05T15:30:12.236Z,12.67
2018-06-05T15:32:40.612Z,13.00
2018-06-05T15:35:08.979Z,9.10
2018-06-05T15:37:37.352Z,11.60
2018-06-05T15:40:05.712Z,9.00
2018-06-05T15:42:34.041Z,14.10
2018-06-05T15:45:02.389Z,10.00
2018-06-05T15:47:30.722Z,9.43
2018-06-05T15:49:59.061Z,14.53
2018-06-05T15:52:27.380Z,9.80
2018-06-05T15:54:56.632Z,11.47
2018-06-05T15:57:24.961Z,12.27
2018-06-05T15:59:53.287Z,11.70
2018-06-05T16:02:21.619Z,15.10
2018-06-05T16:04:49.935Z,10.20
2018-06-05T16:07:18.262Z,11.00
2018-06-05T16:09:46.620Z,13.63
2018-06-05T16:12:14.955Z,13.80
2018-06-05T16:14:43.321Z,11.67
2018-06-05T16:17:11.637Z,15.00
2018-06-05T16:19:39.998Z,14.00
2018-06-05T16:22:09.100Z,16.23
2018-06-05T16:24:37.466Z,15.67
2018-06-05T16:27:05.875Z,12.10
2018-06-05T16:29:34.258Z,15.67
2018-06-05T16:32:02.578Z,15.60
2018-06-05T16:34:30.916Z,15.17
2018-06-05T16:36:59.240Z,15.00
2018-06-05T16:39:27.568Z,11.63
2018-06-05T16:41:55.894Z,14.53
2018-06-05T16:44:24.237Z,15.73
2018-06-05T16:46:52.569Z,12.93
2018-06-05T16:49:20.942Z,14.30
2018-06-05T16:51:49.366Z,13.87
2018-06-05T16:54:18.704Z,12.93
2018-06-05T16:56:47.037Z,13.97
2018-06-05T16:59:15.365Z,12.30
2018-06-05T17:01:43.785Z,18.90
2018-06-05T17:04:12.218Z,9.90
2018-06-05T17:06:40.647Z,16.97
2018-06-05T17:09:09.096Z,14.70
2018-06-05T17:11:37.521Z,14.13
2018-06-05T17:14:05.902Z,12.60
2018-06-05T17:16:34.278Z,12.00
2018-06-05T17:19:02.651Z,10.37
2018-06-05T17:21:31.026Z,18.03
2018-06-05T17:23:59.416Z,12.03
2018-06-05T17:26:27.789Z,11.90
2018-06-05T17:28:56.166Z,11.10
2018-06-05T17:31:24.551Z,19.23
2018-06-05T17:33:52.877Z,16.17
2018-06-05T17:36:21.218Z,12.00
2018-06-05T17:38:49.589Z,16.40
2018-06-05T17:41:18.072Z,15.93
2018-06-05T17:43:46.450Z,12.13
2018-06-05T17:46:14.833Z,12.93
2018-06-05T17:48:43.205Z,17.63
2018-06-05T17:51:11.596Z,13.10
2018-06-05T17:53:40.033Z,17.97
2018-06-05T17:56:08.458Z,14.30
2018-06-05T17:58:36.797Z,12.47
2018-06-05T18:01:05.160Z,13.20
2018-06-05T18:03:33.484Z,13.43
2018-06-05T18:06:01.875Z,13.63
2018-06-05T18:08:30.601Z,13.70
2018-06-05T18:11:00.114Z,15.20
2018-06-05T18:13:29.644Z,17.20
2018-06-05T18:15:58.670Z,15.77
2018-06-05T18:18:28.065Z,18.30
2018-06-05T18:20:56.576Z,13.70
2018-06-05T18:23:25.034Z,17.10
2018-06-05T18:25:53.458Z,12.13
2018-06-05T18:28:21.790Z,15.07
2018-06-05T18:30:52.542Z,18.87
2018-06-05T18:33:23.222Z,14.90
2018-06-05T18:35:51.749Z,14.77
2018-06-05T18:38:20.174Z,28.83
2018-06-05T18:40:48.650Z,13.60
2018-06-05T18:43:17.092Z,9.13
2018-06-05T18:45:45.784Z,9.63
2018-06-05T18:48:14.122Z,8.13
2018-06-05T18:50:42.496Z,7.90
2018-06-05T18:53:11.034Z,6.80
2018-06-05T18:55:39.465Z,4.87
2018-06-05T18:58:07.890Z,5.00
2018-06-05T19:00:37.284Z,4.10
2018-06-05T19:03:05.659Z,7.73
2018-06-05T19:05:33.991Z,6.33
2018-06-05T19:08:02.362Z,4.93
2018-06-05T19:10:31.314Z,2.40
2018-06-05T19:12:59.650Z,4.13
2018-06-05T19:15:28.156Z,7.20
2018-06-05T19:17:56.605Z,10.53
2018-06-05T19:20:25.035Z,3.33
2018-06-05T19:22:53.620Z,2.70
2018-06-05T19:25:21.959Z,7.20
2018-06-05T19:27:50.446Z,2.60
2018-06-05T19:30:18.808Z,7.97
2018-06-05T19:32:47.226Z,2.37
2018-06-05T19:35:16.529Z,5.43
2018-06-05T19:37:44.922Z,1.60
2018-06-05T19:40:13.425Z,4.20
2018-06-05T19:42:41.764Z,2.20
2018-06-05T19:45:10.250Z,1.70
2018-06-05T19:47:38.654Z,1.90
2018-06-05T19:50:07.128Z,2.60
2018-06-05T19:52:35.600Z,4.10
2018-06-05T19:55:04.002Z,5.77
2018-06-05T19:57:32.458Z,1.87
2018-06-05T20:00:00.848Z,5.13
2018-06-05T20:02:29.213Z,3.73
2018-06-05T20:04:57.633Z,3.43
2018-06-05T20:07:25.968Z,1.60
2018-06-05T20:09:54.374Z,1.63
2018-06-05T20:12:22.737Z,3.53
2018-06-05T20:14:51.216Z,2.70
2018-06-05T20:17:19.630Z,5.60
2018-06-05T20:19:47.997Z,1.67
2018-06-05T20:22:16.430Z,2.07
2018-06-05T20:24:44.899Z,3.50
2018-06-05T20:27:13.249Z,2.13
2018-06-05T20:29:41.617Z,2.10
2018-06-05T20:32:09.998Z,2.03
2018-06-05T20:34:38.400Z,2.23
2018-06-05T20:37:06.762Z,2.90
2018-06-05T20:39:35.137Z,4.50
2018-06-05T20:42:03.604Z,2.27
2018-06-05T20:44:31.930Z,3.43
2018-06-05T20:47:00.291Z,13.33
2018-06-05T20:49:28.667Z,2.07
2018-06-05T20:51:57.047Z,3.50
2018-06-05T20:54:25.376Z,2.50
2018-06-05T20:56:53.802Z,1.83
2018-06-05T20:59:22.181Z,1.80
2018-06-05T21:01:50.589Z,6.40
2018-06-05T21:04:18.982Z,4.03
2018-06-05T21:06:47.349Z,2.00
2018-06-05T21:09:15.691Z,2.90
2018-06-05T21:11:44.048Z,2.40
2018-06-05T21:14:12.910Z,2.10
2018-06-05T21:16:41.324Z,2.67
2018-06-05T21:19:09.779Z,5.30
2018-06-05T21:21:38.320Z,3.03
2018-06-05T21:24:06.703Z,3.20
2018-06-05T21:26:35.108Z,3.63
2018-06-05T21:29:03.462Z,1.93
2018-06-05T21:31:31.790Z,4.37
2018-06-05T21:34:00.214Z,3.03
2018-06-05T21:36:28.544Z,2.57
2018-06-05T21:38:56.985Z,5.80
2018-06-05T21:41:25.357Z,2.10
2018-06-05T21:43:53.730Z,4.13
2018-06-05T21:46:22.429Z,2.70
2018-06-05T21:48:50.799Z,2.27
2018-06-05T21:51:19.130Z,2.17
2018-06-05T21:53:47.612Z,5.03
2018-06-05T21:56:15.985Z,3.90
2018-06-05T21:58:44.317Z,2.00
2018-06-05T22:01:12.706Z,3.17
2018-06-05T22:03:41.033Z,7.57
2018-06-05T22:06:09.429Z,2.77
2018-06-05T22:08:37.782Z,3.87
2018-06-05T22:11:06.158Z,4.67
2018-06-05T22:13:34.486Z,1.90
2018-06-05T22:16:02.853Z,2.10
2018-06-05T22:18:31.236Z,2.77
2018-06-05T22:20:59.560Z,3.20
2018-06-05T22:23:27.922Z,4.73
2018-06-05T22:25:56.237Z,4.80
2018-06-05T22:28:24.608Z,5.57
2018-06-05T22:30:52.928Z,5.93
2018-06-05T22:33:21.290Z,3.97
2018-06-05T22:35:49.701Z,2.17
2018-06-05T22:38:18.015Z,4.60
2018-06-05T22:40:46.326Z,5.00
2018-06-05T22:43:14.689Z,5.30
2018-06-05T22:45:43.020Z,2.87
2018-06-05T22:48:11.409Z,3.00
2018-06-05T22:50:39.842Z,3.93
2018-06-05T22:53:08.165Z,2.00
2018-06-05T22:55:36.554Z,3.63
2018-06-05T22:58:04.921Z,4.00
2018-06-05T23:00:34.075Z,2.93
2018-06-05T23:03:02.510Z,4.07
2018-06-05T23:05:30.833Z,2.10
2018-06-05T23:07:59.162Z,5.80
2018-06-05T23:10:27.477Z,3.63
2018-06-05T23:12:55.793Z,2.73
2018-06-05T23:15:24.120Z,2.80
2018-06-05T23:17:52.470Z,3.77
2018-06-05T23:20:20.905Z,3.10
2018-06-05T23:22:49.230Z,3.30
2018-06-05T23:25:17.613Z,3.10
2018-06-05T23:27:45.942Z,2.33
2018-06-05T23:30:14.249Z,3.50
2018-06-05T23:32:42.573Z,2.57
2018-06-05T23:35:10.906Z,4.73
2018-06-05T23:37:39.229Z,5.53
2018-06-05T23:40:07.558Z,4.13
2018-06-05T23:42:35.938Z,3.53
2018-06-05T23:45:04.350Z,2.53
2018-06-05T23:47:32.679Z,3.00
2018-06-05T23:50:01.023Z,5.97
2018-06-05T23:52:29.336Z,7.23
2018-06-05T23:54:57.741Z,3.70
2018-06-05T23:57:26.068Z,3.77
2018-06-05T23:59:54.386Z,3.70
